createdAt,value
2022-12-30T00:01:32.654Z,1.90
2022-12-30T00:03:59.242Z,1.77
2022-12-30T00:06:26.467Z,1.70
2022-12-30T00:08:53.089Z,2.90
2022-12-30T00:11:19.655Z,1.97
2022-12-30T00:14:05.150Z,1.67
2022-12-30T00:16:50.304Z,1.90
2022-12-30T00:19:35.698Z,1.53
2022-12-30T00:22:21.167Z,2.20
2022-12-30T00:25:06.473Z,1.97
2022-12-30T00:27:51.514Z,1.50
2022-12-30T00:30:36.963Z,1.70
2022-12-30T00:33:10.053Z,1.43
2022-12-30T00:35:36.593Z,1.87
2022-12-30T00:38:03.126Z,2.20
2022-12-30T00:40:29.909Z,1.83
2022-12-30T00:43:11.798Z,2.30
2022-12-30T00:45:38.366Z,2.03
2022-12-30T00:48:23.721Z,1.87
2022-12-30T00:51:09.017Z,2.17
2022-12-30T00:53:54.448Z,1.97
2022-12-30T00:56:20.958Z,1.70
2022-12-30T00:58:47.491Z,1.53
2022-12-30T01:01:14.103Z,2.53
2022-12-30T01:03:40.735Z,1.90
2022-12-30T01:06:07.292Z,1.50
2022-12-30T01:08:33.829Z,1.20
2022-12-30T01:11:00.339Z,2.00
2022-12-30T01:13:26.917Z,1.43
2022-12-30T01:15:53.444Z,1.40
2022-12-30T01:18:19.937Z,1.90
2022-12-30T01:20:46.631Z,1.57
2022-12-30T01:23:13.129Z,2.10
2022-12-30T01:25:39.641Z,3.13
2022-12-30T01:28:06.145Z,2.30
2022-12-30T01:30:32.653Z,1.83
2022-12-30T01:32:59.203Z,1.97
2022-12-30T01:35:25.739Z,2.03
2022-12-30T01:37:52.524Z,1.77
2022-12-30T01:40:19.038Z,2.10
2022-12-30T01:42:45.555Z,1.30
2022-12-30T01:45:12.039Z,0.93
2022-12-30T01:47:38.578Z,2.23
2022-12-30T01:50:05.099Z,2.13
2022-12-30T01:52:32.171Z,2.47
2022-12-30T01:54:58.688Z,1.37
2022-12-30T01:57:25.185Z,1.30
2022-12-30T01:59:51.712Z,1.60
2022-12-30T02:02:18.358Z,1.80
2022-12-30T02:04:45.085Z,2.13
2022-12-30T02:07:11.589Z,1.60
2022-12-30T02:09:38.117Z,1.90
2022-12-30T02:12:04.639Z,2.00
2022-12-30T02:14:31.176Z,2.03
2022-12-30T02:16:57.750Z,1.93
2022-12-30T02:19:30.761Z,1.80
2022-12-30T02:21:57.305Z,2.17
2022-12-30T02:24:23.867Z,1.50
2022-12-30T02:26:50.357Z,2.10
2022-12-30T02:29:16.886Z,1.70
2022-12-30T02:31:43.376Z,1.77
2022-12-30T02:34:09.888Z,1.30
2022-12-30T02:36:37.112Z,1.37
2022-12-30T02:39:03.702Z,2.03
2022-12-30T02:41:49.085Z,2.70
2022-12-30T02:44:34.459Z,1.47
2022-12-30T02:47:01.000Z,2.77
2022-12-30T02:49:27.493Z,1.20
2022-12-30T02:52:13.112Z,1.40
2022-12-30T02:54:39.618Z,2.00
2022-12-30T02:57:06.149Z,2.33
2022-12-30T02:59:51.570Z,1.83
2022-12-30T03:02:37.189Z,1.73
2022-12-30T03:05:03.878Z,2.07
2022-12-30T03:07:30.458Z,1.60
2022-12-30T03:10:15.943Z,1.63
2022-12-30T03:12:42.457Z,2.13
2022-12-30T03:15:08.949Z,2.33
2022-12-30T03:17:35.479Z,1.90
2022-12-30T03:20:02.040Z,1.60
2022-12-30T03:22:47.305Z,1.03
2022-12-30T03:25:32.825Z,2.17
2022-12-30T03:27:59.386Z,2.63
2022-12-30T03:30:25.865Z,1.63
2022-12-30T03:32:52.371Z,2.37
2022-12-30T03:35:18.873Z,2.00
2022-12-30T03:37:45.542Z,1.90
2022-12-30T03:40:12.060Z,2.20
2022-12-30T03:42:38.576Z,1.50
2022-12-30T03:45:05.081Z,1.67
2022-12-30T03:47:31.611Z,2.80
2022-12-30T03:49:58.088Z,1.90
2022-12-30T03:52:24.752Z,2.23
2022-12-30T03:54:51.329Z,1.27
2022-12-30T03:57:17.853Z,2.00
2022-12-30T03:59:44.356Z,1.70
2022-12-30T04:02:10.992Z,1.60
2022-12-30T04:04:37.567Z,1.83
2022-12-30T04:07:04.075Z,1.57
2022-12-30T04:09:30.567Z,2.20
2022-12-30T04:11:57.076Z,2.03
2022-12-30T04:14:23.555Z,2.70
2022-12-30T04:16:50.110Z,2.00
2022-12-30T04:19:16.712Z,1.80
2022-12-30T04:21:43.231Z,2.70
2022-12-30T04:24:09.756Z,2.27
2022-12-30T04:26:36.257Z,1.20
2022-12-30T04:29:02.774Z,1.67
2022-12-30T04:31:29.353Z,2.10
2022-12-30T04:33:55.871Z,2.10
2022-12-30T04:36:22.366Z,1.40
2022-12-30T04:38:48.865Z,1.57
2022-12-30T04:41:15.378Z,1.67
2022-12-30T04:43:41.896Z,1.20
2022-12-30T04:46:08.438Z,1.53
2022-12-30T04:48:34.948Z,2.10
2022-12-30T04:51:01.458Z,1.80
2022-12-30T04:53:27.994Z,2.37
2022-12-30T04:55:54.537Z,2.10
2022-12-30T04:58:21.035Z,1.90
2022-12-30T05:00:47.632Z,2.40
2022-12-30T05:03:14.221Z,1.90
2022-12-30T05:05:40.759Z,1.67
2022-12-30T05:08:07.270Z,1.70
2022-12-30T05:10:33.759Z,1.67
2022-12-30T05:13:00.255Z,2.37
2022-12-30T05:15:26.751Z,2.87
2022-12-30T05:17:53.281Z,2.63
2022-12-30T05:20:19.778Z,1.83
2022-12-30T05:22:46.303Z,2.00
2022-12-30T05:25:31.621Z,1.20
2022-12-30T05:27:58.231Z,2.07
2022-12-30T05:30:24.739Z,1.30
2022-12-30T05:32:51.262Z,1.37
2022-12-30T05:35:17.880Z,2.07
2022-12-30T05:37:44.388Z,2.17
2022-12-30T05:40:10.939Z,2.27
2022-12-30T05:42:37.457Z,1.70
2022-12-30T05:45:03.989Z,1.57
2022-12-30T05:47:30.481Z,1.90
2022-12-30T05:49:56.999Z,1.33
2022-12-30T05:52:23.685Z,1.93
2022-12-30T05:54:50.224Z,1.50
2022-12-30T05:57:16.720Z,1.97
2022-12-30T05:59:43.247Z,2.00
2022-12-30T06:02:09.973Z,1.70
2022-12-30T06:04:36.753Z,1.60
2022-12-30T06:07:03.232Z,2.43
2022-12-30T06:09:29.752Z,1.83
2022-12-30T06:11:56.212Z,1.30
2022-12-30T06:14:23.182Z,2.33
2022-12-30T06:16:49.744Z,1.50
2022-12-30T06:19:16.321Z,2.67
2022-12-30T06:21:42.837Z,2.40
2022-12-30T06:24:09.389Z,2.10
2022-12-30T06:26:35.882Z,2.53
2022-12-30T06:29:02.438Z,2.30
2022-12-30T06:31:28.968Z,2.20
2022-12-30T06:33:55.488Z,1.17
2022-12-30T06:36:21.976Z,2.10
2022-12-30T06:38:48.503Z,2.13
2022-12-30T06:41:15.035Z,2.33
2022-12-30T06:43:41.543Z,2.50
2022-12-30T06:46:08.113Z,1.80
2022-12-30T06:48:36.332Z,2.00
2022-12-30T06:51:03.113Z,1.83
2022-12-30T06:53:29.664Z,2.03
2022-12-30T06:55:56.166Z,2.83
2022-12-30T06:58:22.694Z,1.93
2022-12-30T07:00:49.174Z,2.83
2022-12-30T07:03:15.729Z,1.30
2022-12-30T07:05:42.376Z,2.40
2022-12-30T07:08:08.907Z,2.57
2022-12-30T07:10:35.460Z,2.10
2022-12-30T07:13:01.960Z,1.93
2022-12-30T07:15:28.464Z,2.30
2022-12-30T07:17:54.974Z,1.80
2022-12-30T07:20:21.457Z,2.43
2022-12-30T07:22:47.973Z,2.13
2022-12-30T07:25:14.511Z,1.87
2022-12-30T07:27:41.021Z,1.63
2022-12-30T07:30:07.536Z,1.70
2022-12-30T07:32:34.032Z,2.27
2022-12-30T07:35:00.595Z,1.73
2022-12-30T07:37:27.134Z,2.87
2022-12-30T07:39:53.642Z,1.87
2022-12-30T07:42:20.227Z,1.63
2022-12-30T07:44:46.704Z,1.80
2022-12-30T07:47:13.236Z,2.20
2022-12-30T07:49:39.820Z,2.10
2022-12-30T07:52:06.839Z,1.40
2022-12-30T07:54:33.394Z,2.43
2022-12-30T07:56:59.895Z,1.73
2022-12-30T07:59:26.386Z,1.37
2022-12-30T08:01:53.025Z,1.73
2022-12-30T08:04:51.114Z,1.70
2022-12-30T08:07:06.065Z,1.90
2022-12-30T08:09:32.547Z,1.70
2022-12-30T08:11:59.059Z,2.20
2022-12-30T08:14:25.730Z,1.57
2022-12-30T08:16:52.266Z,1.57
2022-12-30T08:19:18.778Z,2.10
2022-12-30T08:21:45.285Z,1.50
2022-12-30T08:24:11.816Z,1.70
2022-12-30T08:26:38.346Z,1.43
2022-12-30T08:29:04.862Z,1.63
2022-12-30T08:31:31.486Z,1.70
2022-12-30T08:33:58.129Z,2.10
2022-12-30T08:36:24.603Z,1.53
2022-12-30T08:38:51.155Z,2.20
2022-12-30T08:41:19.212Z,1.43
2022-12-30T08:43:45.718Z,1.80
2022-12-30T08:46:12.201Z,1.43
2022-12-30T08:48:38.711Z,2.20
2022-12-30T08:51:05.229Z,1.30
2022-12-30T08:53:31.752Z,1.10
2022-12-30T08:55:58.285Z,2.03
2022-12-30T08:58:24.912Z,1.60
2022-12-30T09:00:51.470Z,1.13
2022-12-30T09:03:18.103Z,1.20
2022-12-30T09:05:44.710Z,1.53
2022-12-30T09:08:12.012Z,1.77
2022-12-30T09:10:38.507Z,1.33
2022-12-30T09:13:05.019Z,1.90
2022-12-30T09:15:31.540Z,1.43
2022-12-30T09:17:58.187Z,1.50
2022-12-30T09:20:24.723Z,1.67
2022-12-30T09:22:51.221Z,1.50
2022-12-30T09:25:17.720Z,1.30
2022-12-30T09:27:44.205Z,1.70
2022-12-30T09:30:11.037Z,1.73
2022-12-30T09:32:37.553Z,1.27
2022-12-30T09:35:04.064Z,1.40
2022-12-30T09:37:30.552Z,1.03
2022-12-30T09:39:57.021Z,1.83
2022-12-30T09:42:46.815Z,1.20
2022-12-30T09:45:13.413Z,0.80
2022-12-30T09:47:41.112Z,1.63
2022-12-30T09:50:07.641Z,0.80
2022-12-30T09:52:34.175Z,1.50
2022-12-30T09:55:00.683Z,0.93
2022-12-30T09:57:33.437Z,1.50
2022-12-30T09:59:59.944Z,1.80
2022-12-30T10:02:26.921Z,1.30
2022-12-30T10:04:53.645Z,1.00
2022-12-30T10:07:20.162Z,0.70
2022-12-30T10:09:46.980Z,1.07
2022-12-30T10:12:13.541Z,1.33
2022-12-30T10:14:40.108Z,1.03
2022-12-30T10:17:06.638Z,1.00
2022-12-30T10:19:33.200Z,1.13
2022-12-30T10:21:59.745Z,0.70
2022-12-30T10:24:26.245Z,1.40
2022-12-30T10:26:52.772Z,1.40
2022-12-30T10:29:19.314Z,1.30
2022-12-30T10:31:45.922Z,1.10
2022-12-30T10:34:12.580Z,0.97
2022-12-30T10:36:42.292Z,1.47
2022-12-30T10:39:09.686Z,1.00
2022-12-30T10:41:39.842Z,1.10
2022-12-30T10:44:06.600Z,1.20
2022-12-30T10:46:33.387Z,1.10
2022-12-30T10:48:59.927Z,1.00
2022-12-30T10:51:26.569Z,1.63
2022-12-30T10:53:53.894Z,1.27
2022-12-30T10:56:20.472Z,0.90
2022-12-30T10:58:48.168Z,1.40
2022-12-30T11:01:14.824Z,1.17
2022-12-30T11:03:41.430Z,1.20
2022-12-30T11:06:07.982Z,0.93
2022-12-30T11:08:34.577Z,1.60
2022-12-30T11:11:01.111Z,1.10
2022-12-30T11:13:46.496Z,1.97
2022-12-30T11:16:13.040Z,1.10
2022-12-30T11:18:39.619Z,1.80
2022-12-30T11:21:09.181Z,1.07
2022-12-30T11:23:35.684Z,0.83
2022-12-30T11:26:02.212Z,1.17
2022-12-30T11:28:28.703Z,0.83
2022-12-30T11:30:55.259Z,0.90
2022-12-30T11:33:21.814Z,1.63
2022-12-30T11:35:48.357Z,1.13
2022-12-30T11:38:14.873Z,1.30
2022-12-30T11:40:41.372Z,0.87
2022-12-30T11:43:07.871Z,0.77
2022-12-30T11:45:34.393Z,0.90
2022-12-30T11:48:00.992Z,2.50
2022-12-30T11:50:27.605Z,0.70
2022-12-30T11:52:54.138Z,1.07
2022-12-30T11:55:20.611Z,1.17
2022-12-30T11:57:47.467Z,1.70
2022-12-30T12:00:14.071Z,1.10
2022-12-30T12:02:40.598Z,1.03
2022-12-30T12:05:07.172Z,0.70
2022-12-30T12:07:38.975Z,0.90
2022-12-30T12:10:06.194Z,0.93
2022-12-30T12:12:32.674Z,1.10
2022-12-30T12:14:59.218Z,1.30
2022-12-30T12:17:25.684Z,1.07
2022-12-30T12:19:52.256Z,1.03
2022-12-30T12:22:18.790Z,2.03
2022-12-30T12:24:45.298Z,0.93
2022-12-30T12:27:11.832Z,0.60
2022-12-30T12:29:38.307Z,1.60
2022-12-30T12:32:30.399Z,1.10
2022-12-30T12:34:51.282Z,0.93
2022-12-30T12:37:21.044Z,1.23
2022-12-30T12:39:47.977Z,1.10
2022-12-30T12:42:14.460Z,1.00
2022-12-30T12:44:40.966Z,1.27
2022-12-30T12:47:07.510Z,1.43
2022-12-30T12:49:34.078Z,0.93
2022-12-30T12:52:00.721Z,1.70
2022-12-30T12:57:13.734Z,0.93
2022-12-30T12:59:40.239Z,1.30
2022-12-30T13:02:41.831Z,1.10
2022-12-30T13:04:53.239Z,0.60
2022-12-30T13:07:19.781Z,0.87
2022-12-30T13:09:48.663Z,0.80
2022-12-30T13:12:17.448Z,0.70
2022-12-30T13:14:43.987Z,1.20
2022-12-30T13:17:10.530Z,0.90
2022-12-30T13:19:37.146Z,1.03
2022-12-30T13:22:03.700Z,0.70
2022-12-30T13:24:30.192Z,0.90
2022-12-30T13:26:56.691Z,0.73
2022-12-30T13:29:23.278Z,0.60
2022-12-30T13:31:49.829Z,0.60
2022-12-30T13:34:16.353Z,0.97
2022-12-30T13:36:42.854Z,1.43
2022-12-30T13:39:09.352Z,1.00
2022-12-30T13:41:35.847Z,0.90
2022-12-30T13:44:03.082Z,1.30
2022-12-30T13:46:30.323Z,0.90
2022-12-30T13:48:56.901Z,0.83
2022-12-30T13:51:23.617Z,0.60
2022-12-30T13:53:50.089Z,0.87
2022-12-30T13:56:16.642Z,1.10
2022-12-30T13:58:43.118Z,0.93
2022-12-30T14:01:09.872Z,1.40
2022-12-30T14:03:37.517Z,0.60
2022-12-30T14:06:04.061Z,0.77
2022-12-30T14:08:30.576Z,0.80
2022-12-30T14:10:57.072Z,0.83
2022-12-30T14:13:23.559Z,0.80
2022-12-30T14:15:51.131Z,1.03
2022-12-30T14:18:17.638Z,1.00
2022-12-30T14:20:44.152Z,0.83
2022-12-30T14:23:10.847Z,0.90
2022-12-30T14:25:37.393Z,1.20
2022-12-30T14:28:04.039Z,0.67
2022-12-30T14:30:30.568Z,1.03
2022-12-30T14:32:57.438Z,0.70
2022-12-30T14:35:24.102Z,1.30
2022-12-30T14:37:50.616Z,1.00
2022-12-30T14:40:17.128Z,1.00
2022-12-30T14:42:43.638Z,0.90
2022-12-30T14:45:10.174Z,0.80
2022-12-30T14:47:36.675Z,1.70
2022-12-30T14:50:03.247Z,1.63
2022-12-30T14:52:29.795Z,1.17
2022-12-30T14:54:56.305Z,0.83
2022-12-30T14:57:22.854Z,1.07
2022-12-30T14:59:49.380Z,1.60
2022-12-30T15:02:16.007Z,1.03
2022-12-30T15:04:42.652Z,1.40
2022-12-30T15:07:09.189Z,0.80
2022-12-30T15:09:35.784Z,1.00
2022-12-30T15:12:02.265Z,1.23
2022-12-30T15:14:28.794Z,0.77
2022-12-30T15:16:55.319Z,1.00
2022-12-30T15:19:21.837Z,1.10
2022-12-30T15:21:48.390Z,1.23
2022-12-30T15:24:15.711Z,1.10
2022-12-30T15:26:42.289Z,1.00
2022-12-30T15:29:08.812Z,1.13
2022-12-30T15:31:35.337Z,1.20
2022-12-30T15:34:01.922Z,1.20
2022-12-30T15:36:28.393Z,1.50
2022-12-30T15:38:54.917Z,1.50
2022-12-30T15:41:21.397Z,1.20
2022-12-30T15:43:47.936Z,1.70
2022-12-30T15:46:14.481Z,1.00
2022-12-30T15:48:41.057Z,1.30
2022-12-30T15:51:08.483Z,1.27
2022-12-30T15:53:34.963Z,1.17
2022-12-30T15:56:01.427Z,1.40
2022-12-30T15:58:27.955Z,0.87
2022-12-30T16:00:54.496Z,1.60
2022-12-30T16:03:21.064Z,1.10
2022-12-30T16:05:47.626Z,1.30
2022-12-30T16:08:14.130Z,1.37
2022-12-30T16:10:40.660Z,0.73
2022-12-30T16:13:07.241Z,1.20
2022-12-30T16:15:33.776Z,1.23
2022-12-30T16:18:00.654Z,1.47
2022-12-30T16:20:27.138Z,1.37
2022-12-30T16:22:53.656Z,1.77
2022-12-30T16:25:20.135Z,1.10
2022-12-30T16:27:47.229Z,1.30
2022-12-30T16:30:13.724Z,1.03
2022-12-30T16:32:40.199Z,1.17
2022-12-30T16:35:06.716Z,1.20
2022-12-30T16:37:49.931Z,1.03
2022-12-30T16:40:17.555Z,1.17
2022-12-30T16:42:44.032Z,1.30
2022-12-30T16:45:10.574Z,0.90
2022-12-30T16:47:37.058Z,1.00
2022-12-30T16:50:03.631Z,1.07
2022-12-30T16:52:30.124Z,1.17
2022-12-30T16:54:56.678Z,0.60
2022-12-30T16:57:23.224Z,0.80
2022-12-30T17:00:14.609Z,1.10
2022-12-30T17:02:36.524Z,0.73
2022-12-30T17:05:03.215Z,0.83
2022-12-30T17:07:29.767Z,0.97
2022-12-30T17:10:15.162Z,0.80
2022-12-30T17:12:43.041Z,0.90
2022-12-30T17:15:09.534Z,0.93
2022-12-30T17:17:36.103Z,0.70
2022-12-30T17:20:03.836Z,0.97
2022-12-30T17:22:31.259Z,0.90
2022-12-30T17:24:57.825Z,0.90
2022-12-30T17:27:24.351Z,0.80
2022-12-30T17:29:50.881Z,0.70
2022-12-30T17:32:17.372Z,0.80
2022-12-30T17:34:43.868Z,0.87
2022-12-30T17:37:10.596Z,1.07
2022-12-30T17:39:37.072Z,1.00
2022-12-30T17:42:03.593Z,0.90
2022-12-30T17:44:30.088Z,0.97
2022-12-30T17:46:59.078Z,1.03
2022-12-30T17:49:25.844Z,0.80
2022-12-30T17:51:52.355Z,0.60
2022-12-30T17:54:18.898Z,0.73
2022-12-30T17:56:45.404Z,0.70
2022-12-30T17:59:11.906Z,0.70
2022-12-30T18:01:38.548Z,0.70
2022-12-30T18:04:05.383Z,0.87
2022-12-30T18:06:32.150Z,0.53
2022-12-30T18:08:58.679Z,0.40
2022-12-30T18:11:26.759Z,1.17
2022-12-30T18:13:53.261Z,0.67
2022-12-30T18:16:19.822Z,0.93
2022-12-30T18:18:46.398Z,1.07
2022-12-30T18:21:12.879Z,0.93
2022-12-30T18:23:39.379Z,0.73
2022-12-30T18:26:06.105Z,1.00
2022-12-30T18:28:32.615Z,0.73
2022-12-30T18:30:59.156Z,0.73
2022-12-30T18:33:25.633Z,0.50
2022-12-30T18:35:52.105Z,0.60
2022-12-30T18:38:18.647Z,0.90
2022-12-30T18:40:45.147Z,0.60
2022-12-30T18:43:11.685Z,1.03
2022-12-30T18:45:38.297Z,1.40
2022-12-30T18:48:04.929Z,0.60
2022-12-30T18:50:31.593Z,1.07
2022-12-30T18:52:58.186Z,0.87
2022-12-30T18:55:24.727Z,0.80
2022-12-30T18:57:51.467Z,0.80
2022-12-30T19:00:18.034Z,1.00
2022-12-30T19:02:44.614Z,0.97
2022-12-30T19:05:11.242Z,1.10
2022-12-30T19:10:24.308Z,1.37
2022-12-30T19:12:50.829Z,0.90
2022-12-30T19:15:17.432Z,0.83
2022-12-30T19:17:44.000Z,0.83
2022-12-30T19:20:10.496Z,0.90
2022-12-30T19:22:37.006Z,0.70
2022-12-30T19:25:03.592Z,0.70
2022-12-30T19:27:30.131Z,1.00
2022-12-30T19:29:57.013Z,0.80
2022-12-30T19:32:23.518Z,1.00
2022-12-30T19:34:50.006Z,0.77
2022-12-30T19:37:16.506Z,0.90
2022-12-30T19:39:43.021Z,0.80
2022-12-30T19:42:10.675Z,1.10
2022-12-30T19:44:37.172Z,0.97
2022-12-30T19:47:03.786Z,0.80
2022-12-30T19:49:30.341Z,0.90
2022-12-30T19:51:56.838Z,0.90
2022-12-30T19:54:23.457Z,1.40
2022-12-30T19:56:49.962Z,1.00
2022-12-30T19:59:16.781Z,1.10
2022-12-30T20:01:43.460Z,1.33
2022-12-30T20:04:10.002Z,1.70
2022-12-30T20:06:36.608Z,1.33
2022-12-30T20:09:03.094Z,1.03
2022-12-30T20:11:39.050Z,1.70
2022-12-30T20:14:06.904Z,1.17
2022-12-30T20:16:33.589Z,1.30
2022-12-30T20:19:00.152Z,0.93
2022-12-30T20:21:26.637Z,1.10
2022-12-30T20:23:53.116Z,1.37
2022-12-30T20:26:19.610Z,1.07
2022-12-30T20:28:46.144Z,1.10
2022-12-30T20:31:13.087Z,0.90
2022-12-30T20:33:39.613Z,1.20
2022-12-30T20:36:06.162Z,1.13
2022-12-30T20:38:33.566Z,1.20
2022-12-30T20:41:00.161Z,1.00
2022-12-30T20:43:26.702Z,1.20
2022-12-30T20:45:53.474Z,0.90
2022-12-30T20:48:20.063Z,0.80
2022-12-30T20:50:46.564Z,1.10
2022-12-30T20:53:13.111Z,1.00
2022-12-30T20:55:39.640Z,1.17
2022-12-30T20:58:06.172Z,1.20
2022-12-30T21:00:32.762Z,1.00
2022-12-30T21:02:59.361Z,0.93
2022-12-30T21:08:12.957Z,0.70
2022-12-30T21:10:39.520Z,1.00
2022-12-30T21:13:06.011Z,0.83
2022-12-30T21:15:32.509Z,0.70
2022-12-30T21:17:59.013Z,0.83
2022-12-30T21:20:25.523Z,0.70
2022-12-30T21:22:52.049Z,0.67
2022-12-30T21:25:18.552Z,1.10
2022-12-30T21:27:45.088Z,0.53
2022-12-30T21:30:11.592Z,1.13
2022-12-30T21:32:38.157Z,0.60
2022-12-30T21:35:04.643Z,0.90
2022-12-30T21:37:32.613Z,0.70
2022-12-30T21:40:17.789Z,0.53
2022-12-30T21:43:13.169Z,0.90
2022-12-30T21:45:58.013Z,1.10
2022-12-30T21:48:43.448Z,1.17
2022-12-30T21:51:28.701Z,1.20
2022-12-30T21:54:22.864Z,1.47
2022-12-30T21:57:08.600Z,0.93
2022-12-30T21:59:53.985Z,0.97
2022-12-30T22:02:39.520Z,1.00
2022-12-30T22:05:06.291Z,0.83
2022-12-30T22:07:32.886Z,1.07
2022-12-30T22:09:59.425Z,1.20
2022-12-30T22:12:25.919Z,1.00
2022-12-30T22:14:52.447Z,0.93
2022-12-30T22:17:18.963Z,0.80
2022-12-30T22:19:45.466Z,0.90
2022-12-30T22:22:11.945Z,0.80
2022-12-30T22:24:38.652Z,0.70
2022-12-30T22:27:06.144Z,0.70
2022-12-30T22:29:32.919Z,0.90
2022-12-30T22:31:59.488Z,0.80
2022-12-30T22:34:25.993Z,0.83
2022-12-30T22:36:54.955Z,0.70
2022-12-30T22:39:21.719Z,0.93
2022-12-30T22:41:48.276Z,0.90
2022-12-30T22:44:14.777Z,0.70
2022-12-30T22:46:41.297Z,0.70
2022-12-30T22:49:07.822Z,0.60
2022-12-30T22:51:34.452Z,0.80
2022-12-30T22:54:01.015Z,0.60
2022-12-30T22:56:27.480Z,0.70
2022-12-30T22:58:54.091Z,0.50
2022-12-30T23:01:20.662Z,0.47
2022-12-30T23:03:47.352Z,0.70
2022-12-30T23:06:13.863Z,0.60
2022-12-30T23:08:40.424Z,0.50
2022-12-30T23:11:06.902Z,0.60
2022-12-30T23:13:52.214Z,0.63
2022-12-30T23:16:18.799Z,0.50
2022-12-30T23:18:45.364Z,0.60
2022-12-30T23:21:11.911Z,0.70
2022-12-30T23:23:57.434Z,0.60
2022-12-30T23:26:24.014Z,0.60
2022-12-30T23:28:50.537Z,0.60
2022-12-30T23:31:17.063Z,0.60
2022-12-30T23:33:43.626Z,0.67
2022-12-30T23:36:10.091Z,0.80
2022-12-30T23:38:36.639Z,0.83
2022-12-30T23:41:03.161Z,0.70
2022-12-30T23:43:29.659Z,0.60
2022-12-30T23:45:56.191Z,0.60
2022-12-30T23:48:29.265Z,0.90
2022-12-30T23:50:57.064Z,0.50
2022-12-30T23:53:23.584Z,0.50
2022-12-30T23:55:50.054Z,1.07
2022-12-30T23:58:16.615Z,0.70
